sensor_id;sensor_type;location;lat;lon;timestamp;pressure;altitude;pressure_sealevel;temperature;humidity
68654;BME280;55636;51.108;13.622;2023-01-28T00:00:07;101246.88;;;0.65;66.17
68654;BME280;55636;51.108;13.622;2023-01-28T00:01:14;101241.75;;;0.61;66.24
68654;BME280;55636;51.108;13.622;2023-01-28T00:02:17;101240.91;;;0.61;66.17
68654;BME280;55636;51.108;13.622;2023-01-28T00:03:20;101240.06;;;0.60;66.19
68654;BME280;55636;51.108;13.622;2023-01-28T00:04:23;101240.06;;;0.60;66.32
68654;BME280;55636;51.108;13.622;2023-01-28T00:05:25;101239.56;;;0.57;66.34
68654;BME280;55636;51.108;13.622;2023-01-28T00:06:29;101236.69;;;0.58;66.34
68654;BME280;55636;51.108;13.622;2023-01-28T00:07:31;101245.66;;;0.59;66.38
68654;BME280;55636;51.108;13.622;2023-01-28T00:08:34;101240.41;;;0.57;66.27
68654;BME280;55636;51.108;13.622;2023-01-28T00:09:36;101244.16;;;0.56;66.38
68654;BME280;55636;51.108;13.622;2023-01-28T00:10:41;101243.13;;;0.57;66.43
68654;BME280;55636;51.108;13.622;2023-01-28T00:11:44;101243.97;;;0.58;66.42
68654;BME280;55636;51.108;13.622;2023-01-28T00:12:47;101237.00;;;0.55;66.51
68654;BME280;55636;51.108;13.622;2023-01-28T00:13:51;101232.59;;;0.54;66.30
68654;BME280;55636;51.108;13.622;2023-01-28T00:14:54;101238.88;;;0.55;66.42
68654;BME280;55636;51.108;13.622;2023-01-28T00:15:58;101232.75;;;0.53;66.41
68654;BME280;55636;51.108;13.622;2023-01-28T00:17:04;101240.75;;;0.54;66.50
68654;BME280;55636;51.108;13.622;2023-01-28T00:18:06;101241.78;;;0.53;66.34
68654;BME280;55636;51.108;13.622;2023-01-28T00:19:09;101245.50;;;0.52;66.34
68654;BME280;55636;51.108;13.622;2023-01-28T00:20:11;101245.34;;;0.54;66.42
68654;BME280;55636;51.108;13.622;2023-01-28T00:21:16;101250.78;;;0.54;66.43
68654;BME280;55636;51.108;13.622;2023-01-28T00:22:18;101245.50;;;0.52;66.33
68654;BME280;55636;51.108;13.622;2023-01-28T00:23:20;101242.78;;;0.52;66.47
68654;BME280;55636;51.108;13.622;2023-01-28T00:24:22;101248.22;;;0.52;66.47
68654;BME280;55636;51.108;13.622;2023-01-28T00:25:25;101253.50;;;0.54;66.51
68654;BME280;55636;51.108;13.622;2023-01-28T00:26:27;101252.84;;;0.52;66.44
68654;BME280;55636;51.108;13.622;2023-01-28T00:27:30;101247.41;;;0.52;66.41
68654;BME280;55636;51.108;13.622;2023-01-28T00:28:36;101250.13;;;0.52;66.69
68654;BME280;55636;51.108;13.622;2023-01-28T00:29:38;101247.53;;;0.50;66.50
68654;BME280;55636;51.108;13.622;2023-01-28T00:30:41;101248.41;;;0.51;66.56
68654;BME280;55636;51.108;13.622;2023-01-28T00:31:43;101245.00;;;0.49;66.40
68654;BME280;55636;51.108;13.622;2023-01-28T00:32:49;101248.59;;;0.49;66.68
68654;BME280;55636;51.108;13.622;2023-01-28T00:33:54;101251.31;;;0.49;66.51
68654;BME280;55636;51.108;13.622;2023-01-28T00:34:57;101247.72;;;0.49;66.64
68654;BME280;55636;51.108;13.622;2023-01-28T00:36:00;101248.22;;;0.52;66.62
68654;BME280;55636;51.108;13.622;2023-01-28T00:37:03;101240.25;;;0.51;66.58
68654;BME280;55636;51.108;13.622;2023-01-28T00:38:06;101241.63;;;0.47;66.56
68654;BME280;55636;51.108;13.622;2023-01-28T00:39:13;101240.56;;;0.48;66.53
68654;BME280;55636;51.108;13.622;2023-01-28T00:40:16;101250.25;;;0.50;66.41
68654;BME280;55636;51.108;13.622;2023-01-28T00:41:21;101250.25;;;0.50;66.51
68654;BME280;55636;51.108;13.622;2023-01-28T00:42:27;101252.16;;;0.50;66.47
68654;BME280;55636;51.108;13.622;2023-01-28T00:43:30;101253.84;;;0.51;66.36
68654;BME280;55636;51.108;13.622;2023-01-28T00:44:32;101254.88;;;0.50;66.36
68654;BME280;55636;51.108;13.622;2023-01-28T00:45:37;101253.84;;;0.51;66.19
68654;BME280;55636;51.108;13.622;2023-01-28T00:46:40;101254.03;;;0.49;66.22
68654;BME280;55636;51.108;13.622;2023-01-28T00:47:43;101254.19;;;0.48;66.13
68654;BME280;55636;51.108;13.622;2023-01-28T00:48:46;101255.03;;;0.48;66.21
68654;BME280;55636;51.108;13.622;2023-01-28T00:49:49;101252.31;;;0.48;66.16
68654;BME280;55636;51.108;13.622;2023-01-28T00:50:51;101248.59;;;0.49;65.93
68654;BME280;55636;51.108;13.622;2023-01-28T00:51:54;101256.75;;;0.49;65.94
68654;BME280;55636;51.108;13.622;2023-01-28T00:52:59;101256.75;;;0.49;66.05
68654;BME280;55636;51.108;13.622;2023-01-28T00:54:05;101253.16;;;0.49;65.88
68654;BME280;55636;51.108;13.622;2023-01-28T00:55:08;101256.06;;;0.47;66.03
68654;BME280;55636;51.108;13.622;2023-01-28T00:56:13;101248.59;;;0.49;66.01
68654;BME280;55636;51.108;13.622;2023-01-28T00:57:15;101250.78;;;0.46;66.04
68654;BME280;55636;51.108;13.622;2023-01-28T00:58:18;101248.91;;;0.46;66.02
68654;BME280;55636;51.108;13.622;2023-01-28T00:59:21;101262.19;;;0.49;65.90
68654;BME280;55636;51.108;13.622;2023-01-28T01:00:23;101259.63;;;0.48;66.07
68654;BME280;55636;51.108;13.622;2023-01-28T01:01:27;101253.16;;;0.49;66.04
68654;BME280;55636;51.108;13.622;2023-01-28T01:02:29;101252.50;;;0.47;65.90
68654;BME280;55636;51.108;13.622;2023-01-28T01:03:32;101257.06;;;0.46;65.99
68654;BME280;55636;51.108;13.622;2023-01-28T01:04:35;101248.75;;;0.48;65.89
68654;BME280;55636;51.108;13.622;2023-01-28T01:05:37;101256.88;;;0.48;66.03
68654;BME280;55636;51.108;13.622;2023-01-28T01:06:42;101251.63;;;0.46;65.93
68654;BME280;55636;51.108;13.622;2023-01-28T01:07:44;101247.25;;;0.45;66.01
68654;BME280;55636;51.108;13.622;2023-01-28T01:08:47;101249.78;;;0.47;65.95
68654;BME280;55636;51.108;13.622;2023-01-28T01:09:52;101255.22;;;0.47;65.96
68654;BME280;55636;51.108;13.622;2023-01-28T01:10:58;101252.50;;;0.47;65.81
68654;BME280;55636;51.108;13.622;2023-01-28T01:12:00;101252.69;;;0.45;65.90
68654;BME280;55636;51.108;13.622;2023-01-28T01:13:04;101256.88;;;0.48;66.10
68654;BME280;55636;51.108;13.622;2023-01-28T01:14:09;101254.34;;;0.46;65.91
68654;BME280;55636;51.108;13.622;2023-01-28T01:15:13;101259.63;;;0.48;65.89
68654;BME280;55636;51.108;13.622;2023-01-28T01:16:16;101256.06;;;0.47;65.96
68654;BME280;55636;51.108;13.622;2023-01-28T01:17:24;101253.34;;;0.47;66.04
68654;BME280;55636;51.108;13.622;2023-01-28T01:22:06;101256.75;;;0.49;66.14
68654;BME280;55636;51.108;13.622;2023-01-28T01:23:08;101264.91;;;0.49;65.92
68654;BME280;55636;51.108;13.622;2023-01-28T01:24:10;101262.19;;;0.49;66.09
68654;BME280;55636;51.108;13.622;2023-01-28T01:25:14;101260.47;;;0.48;65.97
68654;BME280;55636;51.108;13.622;2023-01-28T01:26:18;101247.91;;;0.47;66.04
68654;BME280;55636;51.108;13.622;2023-01-28T01:27:20;101256.88;;;0.48;66.11
68654;BME280;55636;51.108;13.622;2023-01-28T01:28:23;101257.75;;;0.48;65.93
68654;BME280;55636;51.108;13.622;2023-01-28T01:29:29;101259.63;;;0.48;66.09
68654;BME280;55636;51.108;13.622;2023-01-28T01:30:31;101261.31;;;0.49;66.05
68654;BME280;55636;51.108;13.622;2023-01-28T01:31:34;101264.03;;;0.49;65.92
68654;BME280;55636;51.108;13.622;2023-01-28T01:32:37;101262.19;;;0.49;66.09
68654;BME280;55636;51.108;13.622;2023-01-28T01:33:42;101268.63;;;0.48;65.96
68654;BME280;55636;51.108;13.622;2023-01-28T01:34:46;101265.75;;;0.50;66.04
68654;BME280;55636;51.108;13.622;2023-01-28T01:35:52;101274.72;;;0.50;66.02
68654;BME280;55636;51.108;13.622;2023-01-28T01:36:57;101272.88;;;0.51;66.04
68654;BME280;55636;51.108;13.622;2023-01-28T01:37:59;101265.75;;;0.50;65.90
68654;BME280;55636;51.108;13.622;2023-01-28T01:39:03;101273.72;;;0.51;65.85
68654;BME280;55636;51.108;13.622;2023-01-28T01:40:06;101272.00;;;0.50;65.88
68654;BME280;55636;51.108;13.622;2023-01-28T01:41:24;101271.00;;;0.51;65.90
68654;BME280;55636;51.108;13.622;2023-01-28T01:42:30;101267.63;;;0.49;65.78
68654;BME280;55636;51.108;13.622;2023-01-28T01:43:55;101264.72;;;0.51;65.78
68654;BME280;55636;51.108;13.622;2023-01-28T01:45:11;101262.84;;;0.51;65.75
68654;BME280;55636;51.108;13.622;2023-01-28T01:46:32;101265.56;;;0.51;65.83
68654;BME280;55636;51.108;13.622;2023-01-28T01:47:44;101266.56;;;0.50;65.72
68654;BME280;55636;51.108;13.622;2023-01-28T01:48:48;101263.84;;;0.50;65.68
68654;BME280;55636;51.108;13.622;2023-01-28T01:49:51;101265.75;;;0.50;65.79
68654;BME280;55636;51.108;13.622;2023-01-28T01:50:56;101258.41;;;0.50;65.73
68654;BME280;55636;51.108;13.622;2023-01-28T01:52:04;101262.19;;;0.49;65.73
68654;BME280;55636;51.108;13.622;2023-01-28T01:53:11;101267.44;;;0.51;65.78
68654;BME280;55636;51.108;13.622;2023-01-28T01:54:16;101265.75;;;0.50;65.80
68654;BME280;55636;51.108;13.622;2023-01-28T01:55:20;101266.75;;;0.49;65.71
68654;BME280;55636;51.108;13.622;2023-01-28T01:56:29;101267.63;;;0.49;65.80
68654;BME280;55636;51.108;13.622;2023-01-28T01:57:35;101267.63;;;0.49;65.78
68654;BME280;55636;51.108;13.622;2023-01-28T01:58:40;101262.19;;;0.49;65.82
68654;BME280;55636;51.108;13.622;2023-01-28T01:59:44;101264.03;;;0.49;65.76
68654;BME280;55636;51.108;13.622;2023-01-28T02:00:47;101270.16;;;0.51;65.78
68654;BME280;55636;51.108;13.622;2023-01-28T02:01:49;101263.03;;;0.50;65.75
68654;BME280;55636;51.108;13.622;2023-01-28T02:02:52;101266.56;;;0.50;65.72
68654;BME280;55636;51.108;13.622;2023-01-28T02:04:25;101267.63;;;0.49;65.56
68654;BME280;55636;51.108;13.622;2023-01-28T02:05:27;101266.56;;;0.50;65.63
68654;BME280;55636;51.108;13.622;2023-01-28T02:06:30;101263.84;;;0.50;65.75
68654;BME280;55636;51.108;13.622;2023-01-28T02:07:33;101263.03;;;0.50;65.63
68654;BME280;55636;51.108;13.622;2023-01-28T02:08:36;101261.13;;;0.50;65.74
68654;BME280;55636;51.108;13.622;2023-01-28T02:09:41;101270.16;;;0.51;65.75
68654;BME280;55636;51.108;13.622;2023-01-28T02:11:08;101260.31;;;0.50;65.70
68654;BME280;55636;51.108;13.622;2023-01-28T02:12:26;101260.13;;;0.51;65.63
68654;BME280;55636;51.108;13.622;2023-01-28T02:13:34;101261.00;;;0.52;65.60
68654;BME280;55636;51.108;13.622;2023-01-28T02:14:41;101261.13;;;0.50;65.61
68654;BME280;55636;51.108;13.622;2023-01-28T02:15:46;101254.69;;;0.51;65.67
68654;BME280;55636;51.108;13.622;2023-01-28T02:16:50;101257.41;;;0.51;65.75
68654;BME280;55636;51.108;13.622;2023-01-28T02:17:53;101264.72;;;0.51;65.59
68654;BME280;55636;51.108;13.622;2023-01-28T02:18:55;101261.00;;;0.52;65.71
68654;BME280;55636;51.108;13.622;2023-01-28T02:20:02;101257.41;;;0.51;65.72
68654;BME280;55636;51.108;13.622;2023-01-28T02:26:13;101255.38;;;0.53;65.74
68654;BME280;55636;51.108;13.622;2023-01-28T02:27:16;101261.47;;;0.55;65.72
68654;BME280;55636;51.108;13.622;2023-01-28T02:28:25;101265.25;;;0.54;65.48
68654;BME280;55636;51.108;13.622;2023-01-28T02:29:41;101263.34;;;0.55;65.54
68654;BME280;55636;51.108;13.622;2023-01-28T02:30:53;101258.94;;;0.54;65.38
68654;BME280;55636;51.108;13.622;2023-01-28T02:33:32;101270.00;;;0.52;65.46
68654;BME280;55636;51.108;13.622;2023-01-28T02:34:43;101270.00;;;0.52;65.39
68654;BME280;55636;51.108;13.622;2023-01-28T02:35:51;101274.59;;;0.52;65.38
68654;BME280;55636;51.108;13.622;2023-01-28T02:37:03;101278.16;;;0.52;65.43
68654;BME280;55636;51.108;13.622;2023-01-28T02:38:31;101270.16;;;0.51;65.41
68654;BME280;55636;51.108;13.622;2023-01-28T02:39:39;101269.28;;;0.50;65.38
68654;BME280;55636;51.108;13.622;2023-01-28T02:40:47;101277.44;;;0.50;65.31
68654;BME280;55636;51.108;13.622;2023-01-28T02:42:05;101280.03;;;0.52;65.33
68654;BME280;55636;51.108;13.622;2023-01-28T02:43:10;101281.03;;;0.51;65.16
68654;BME280;55636;51.108;13.622;2023-01-28T02:44:12;101273.06;;;0.49;65.08
68654;BME280;55636;51.108;13.622;2023-01-28T02:45:20;101274.91;;;0.49;64.91
68654;BME280;55636;51.108;13.622;2023-01-28T02:47:47;101282.22;;;0.48;64.88
68654;BME280;55636;51.108;13.622;2023-01-28T02:49:04;101284.94;;;0.48;64.85
68654;BME280;55636;51.108;13.622;2023-01-28T02:50:16;101281.53;;;0.46;64.85
68654;BME280;55636;51.108;13.622;2023-01-28T02:52:55;101284.25;;;0.46;65.02
68654;BME280;55636;51.108;13.622;2023-01-28T02:54:39;101281.72;;;0.44;64.96
68654;BME280;55636;51.108;13.622;2023-01-28T02:57:40;101283.91;;;0.41;64.90
68654;BME280;55636;51.108;13.622;2023-01-28T02:59:18;101275.94;;;0.39;64.96
68654;BME280;55636;51.108;13.622;2023-01-28T03:00:48;101284.09;;;0.39;64.95
68654;BME280;55636;51.108;13.622;2023-01-28T03:01:55;101284.28;;;0.38;64.93
68654;BME280;55636;51.108;13.622;2023-01-28T03:03:15;101287.00;;;0.38;64.85
68654;BME280;55636;51.108;13.622;2023-01-28T03:04:26;101284.28;;;0.38;64.87
68654;BME280;55636;51.108;13.622;2023-01-28T03:05:34;101287.16;;;0.36;64.86
68654;BME280;55636;51.108;13.622;2023-01-28T03:06:41;101285.28;;;0.37;64.86
68654;BME280;55636;51.108;13.622;2023-01-28T03:07:45;101283.59;;;0.36;65.08
68654;BME280;55636;51.108;13.622;2023-01-28T03:08:54;101275.44;;;0.36;64.81
68654;BME280;55636;51.108;13.622;2023-01-28T03:10:19;101281.03;;;0.34;64.88
68654;BME280;55636;51.108;13.622;2023-01-28T03:11:22;101279.19;;;0.35;64.80
68654;BME280;55636;51.108;13.622;2023-01-28T03:12:46;101281.91;;;0.35;64.93
68654;BME280;55636;51.108;13.622;2023-01-28T03:14:10;101280.19;;;0.34;64.89
68654;BME280;55636;51.108;13.622;2023-01-28T03:15:36;101281.03;;;0.34;64.67
68654;BME280;55636;51.108;13.622;2023-01-28T03:17:01;101278.31;;;0.34;64.76
68654;BME280;55636;51.108;13.622;2023-01-28T03:18:40;101288.34;;;0.34;64.79
68654;BME280;55636;51.108;13.622;2023-01-28T03:20:04;101286.66;;;0.33;64.84
68654;BME280;55636;51.108;13.622;2023-01-28T03:21:29;101284.94;;;0.32;64.72
68654;BME280;55636;51.108;13.622;2023-01-28T03:22:53;101283.09;;;0.32;64.64
68654;BME280;55636;51.108;13.622;2023-01-28T03:24:23;101278.69;;;0.31;64.48
68654;BME280;55636;51.108;13.622;2023-01-28T03:25:47;101293.28;;;0.30;64.33
68654;BME280;55636;51.108;13.622;2023-01-28T03:27:24;101285.28;;;0.28;64.27
68654;BME280;55636;51.108;13.622;2023-01-28T03:28:49;101290.22;;;0.25;64.29
68654;BME280;55636;51.108;13.622;2023-01-28T03:30:18;101286.50;;;0.26;64.19
68654;BME280;55636;51.108;13.622;2023-01-28T03:31:45;101284.13;;;0.23;64.28
68654;BME280;55636;51.108;13.622;2023-01-28T03:33:08;101277.81;;;0.22;64.37
68654;BME280;55636;51.108;13.622;2023-01-28T03:34:29;101286.97;;;0.21;64.29
68654;BME280;55636;51.108;13.622;2023-01-28T03:35:50;101282.72;;;0.19;64.14
68654;BME280;55636;51.108;13.622;2023-01-28T03:37:12;101287.34;;;0.18;64.26
68654;BME280;55636;51.108;13.622;2023-01-28T03:38:42;101284.78;;;0.17;64.25
68654;BME280;55636;51.108;13.622;2023-01-28T03:39:50;101286.63;;;0.16;64.27
68654;BME280;55636;51.108;13.622;2023-01-28T03:40:58;101285.09;;;0.14;64.19
68654;BME280;55636;51.108;13.622;2023-01-28T03:42:09;101288.69;;;0.14;64.13
68654;BME280;55636;51.108;13.622;2023-01-28T03:43:34;101292.25;;;0.15;64.07
68654;BME280;55636;51.108;13.622;2023-01-28T03:44:36;101297.03;;;0.13;64.10
68654;BME280;55636;51.108;13.622;2023-01-28T03:45:52;101291.72;;;0.11;64.19
68654;BME280;55636;51.108;13.622;2023-01-28T03:46:56;101298.03;;;0.11;64.11
68654;BME280;55636;51.108;13.622;2023-01-28T03:47:59;101300.91;;;0.10;64.13
68654;BME280;55636;51.108;13.622;2023-01-28T03:49:01;101295.63;;;0.08;64.06
68654;BME280;55636;51.108;13.622;2023-01-28T03:50:05;101296.69;;;0.07;63.95
68654;BME280;55636;51.108;13.622;2023-01-28T03:51:14;101301.06;;;0.08;63.93
68654;BME280;55636;51.108;13.622;2023-01-28T03:52:22;101303.13;;;0.06;63.88
68654;BME280;55636;51.108;13.622;2023-01-28T03:53:26;101306.00;;;0.05;63.79
68654;BME280;55636;51.108;13.622;2023-01-28T03:54:30;101305.13;;;0.04;63.73
68654;BME280;55636;51.108;13.622;2023-01-28T03:55:32;101311.75;;;0.02;63.70
68654;BME280;55636;51.108;13.622;2023-01-28T03:56:36;101302.78;;;0.01;63.56
68654;BME280;55636;51.108;13.622;2023-01-28T03:57:38;101301.94;;;0.01;63.69
68654;BME280;55636;51.108;13.622;2023-01-28T03:58:41;101306.66;;;-0.01;63.71
68654;BME280;55636;51.108;13.622;2023-01-28T03:59:58;101304.97;;;-0.02;63.70
68654;BME280;55636;51.108;13.622;2023-01-28T04:01:02;101312.28;;;-0.03;63.45
68654;BME280;55636;51.108;13.622;2023-01-28T04:02:04;101311.59;;;-0.05;63.45
68654;BME280;55636;51.108;13.622;2023-01-28T04:03:08;101311.59;;;-0.05;63.22
68654;BME280;55636;51.108;13.622;2023-01-28T04:04:22;101315.31;;;-0.06;63.26
68654;BME280;55636;51.108;13.622;2023-01-28T04:05:29;101316.50;;;-0.09;63.23
68654;BME280;55636;51.108;13.622;2023-01-28T04:06:33;101310.41;;;-0.11;63.15
68654;BME280;55636;51.108;13.622;2023-01-28T04:07:58;101310.56;;;-0.12;63.07
68654;BME280;55636;51.108;13.622;2023-01-28T04:09:20;101316.13;;;-0.14;62.91
68654;BME280;55636;51.108;13.622;2023-01-28T04:10:28;101312.75;;;-0.16;62.87
68654;BME280;55636;51.108;13.622;2023-01-28T04:11:40;101316.47;;;-0.17;62.79
68654;BME280;55636;51.108;13.622;2023-01-28T04:12:43;101319.38;;;-0.18;62.81
68654;BME280;55636;51.108;13.622;2023-01-28T04:13:47;101324.81;;;-0.18;62.65
68654;BME280;55636;51.108;13.622;2023-01-28T04:14:51;101320.72;;;-0.23;62.54
68654;BME280;55636;51.108;13.622;2023-01-28T04:16:00;101319.19;;;-0.25;62.66
68654;BME280;55636;51.108;13.622;2023-01-28T04:17:10;101322.91;;;-0.26;62.57
68654;BME280;55636;51.108;13.622;2023-01-28T04:18:14;101319.50;;;-0.28;62.58
68654;BME280;55636;51.108;13.622;2023-01-28T04:19:16;101325.28;;;-0.31;62.68
68654;BME280;55636;51.108;13.622;2023-01-28T04:20:19;101323.56;;;-0.32;62.78
68654;BME280;55636;51.108;13.622;2023-01-28T04:21:21;101327.28;;;-0.33;62.93
68654;BME280;55636;51.108;13.622;2023-01-28T04:22:24;101322.03;;;-0.35;62.69
68654;BME280;55636;51.108;13.622;2023-01-28T04:23:27;101324.91;;;-0.36;62.72
68654;BME280;55636;51.108;13.622;2023-01-28T04:24:31;101324.91;;;-0.36;62.69
68654;BME280;55636;51.108;13.622;2023-01-28T04:25:33;101320.66;;;-0.39;62.72
68654;BME280;55636;51.108;13.622;2023-01-28T04:26:38;101326.09;;;-0.39;62.52
68654;BME280;55636;51.108;13.622;2023-01-28T04:27:41;101323.53;;;-0.41;62.74
68654;BME280;55636;51.108;13.622;2023-01-28T04:28:52;101331.00;;;-0.43;62.64
68654;BME280;55636;51.108;13.622;2023-01-28T04:29:54;101330.16;;;-0.43;62.46
68654;BME280;55636;51.108;13.622;2023-01-28T04:31:08;101329.47;;;-0.45;62.47
68654;BME280;55636;51.108;13.622;2023-01-28T04:32:31;101333.34;;;-0.48;62.27
68654;BME280;55636;51.108;13.622;2023-01-28T04:33:56;101338.13;;;-0.50;62.25
68654;BME280;55636;51.108;13.622;2023-01-28T04:35:14;101342.84;;;-0.52;62.13
68654;BME280;55636;51.108;13.622;2023-01-28T04:36:31;101339.47;;;-0.54;62.07
68654;BME280;55636;51.108;13.622;2023-01-28T04:37:57;101345.03;;;-0.56;61.94
68654;BME280;55636;51.108;13.622;2023-01-28T04:39:18;101342.66;;;-0.59;61.94
68654;BME280;55636;51.108;13.622;2023-01-28T04:40:40;101335.69;;;-0.61;61.83
68654;BME280;55636;51.108;13.622;2023-01-28T04:42:05;101345.00;;;-0.64;61.61
68654;BME280;55636;51.108;13.622;2023-01-28T04:43:26;101350.75;;;-0.67;61.66
68654;BME280;55636;51.108;13.622;2023-01-28T04:44:42;101341.25;;;-0.71;61.76
68654;BME280;55636;51.108;13.622;2023-01-28T04:46:06;101345.13;;;-0.74;61.60
68654;BME280;55636;51.108;13.622;2023-01-28T04:47:15;101350.69;;;-0.75;61.65
68654;BME280;55636;51.108;13.622;2023-01-28T04:48:49;101348.47;;;-0.80;61.68
68654;BME280;55636;51.108;13.622;2023-01-28T04:50:04;101344.22;;;-0.82;61.42
68654;BME280;55636;51.108;13.622;2023-01-28T04:51:26;101343.69;;;-0.86;61.61
68654;BME280;55636;51.108;13.622;2023-01-28T04:52:57;101347.75;;;-0.90;61.43
68654;BME280;55636;51.108;13.622;2023-01-28T04:54:13;101350.78;;;-0.93;61.68
68654;BME280;55636;51.108;13.622;2023-01-28T04:55:16;101346.53;;;-0.96;61.60
68654;BME280;55636;51.108;13.622;2023-01-28T04:56:20;101354.97;;;-0.99;61.61
68654;BME280;55636;51.108;13.622;2023-01-28T04:57:22;101360.56;;;-1.00;61.59
68654;BME280;55636;51.108;13.622;2023-01-28T04:58:25;101368.69;;;-1.00;61.60
68654;BME280;55636;51.108;13.622;2023-01-28T04:59:32;101360.19;;;-1.06;61.69
68654;BME280;55636;51.108;13.622;2023-01-28T05:00:35;101366.31;;;-1.03;61.66
68654;BME280;55636;51.108;13.622;2023-01-28T05:01:38;101358.47;;;-1.07;61.75
68654;BME280;55636;51.108;13.622;2023-01-28T05:02:40;101374.09;;;-1.09;61.79
68654;BME280;55636;51.108;13.622;2023-01-28T05:03:44;101377.63;;;-1.08;61.86
68654;BME280;55636;51.108;13.622;2023-01-28T05:04:54;101380.50;;;-1.10;61.65
68654;BME280;55636;51.108;13.622;2023-01-28T05:06:10;101377.97;;;-1.11;61.85
68654;BME280;55636;51.108;13.622;2023-01-28T05:07:16;101371.84;;;-1.13;61.91
68654;BME280;55636;51.108;13.622;2023-01-28T05:08:18;101378.25;;;-1.14;61.74
68654;BME280;55636;51.108;13.622;2023-01-28T05:09:21;101381.13;;;-1.16;61.73
68654;BME280;55636;51.108;13.622;2023-01-28T05:10:26;101385.72;;;-1.16;61.72
68654;BME280;55636;51.108;13.622;2023-01-28T05:11:29;101380.47;;;-1.18;61.94
68654;BME280;55636;51.108;13.622;2023-01-28T05:12:34;101381.47;;;-1.19;61.80
68654;BME280;55636;51.108;13.622;2023-01-28T05:13:41;101379.75;;;-1.20;61.99
68654;BME280;55636;51.108;13.622;2023-01-28T05:14:46;101386.00;;;-1.19;61.82
68654;BME280;55636;51.108;13.622;2023-01-28T05:15:52;101388.06;;;-1.22;62.03
68654;BME280;55636;51.108;13.622;2023-01-28T05:16:55;101387.06;;;-1.20;61.79
68654;BME280;55636;51.108;13.622;2023-01-28T05:17:57;101384.16;;;-1.19;61.82
68654;BME280;55636;51.108;13.622;2023-01-28T05:19:04;101385.88;;;-1.18;61.64
68654;BME280;55636;51.108;13.622;2023-01-28T05:20:13;101381.63;;;-1.20;61.84
68654;BME280;55636;51.108;13.622;2023-01-28T05:21:17;101387.06;;;-1.20;61.64
68654;BME280;55636;51.108;13.622;2023-01-28T05:22:25;101376.34;;;-1.22;61.64
68654;BME280;55636;51.108;13.622;2023-01-28T05:23:46;101384.47;;;-1.22;61.71
68654;BME280;55636;51.108;13.622;2023-01-28T05:24:48;101383.63;;;-1.23;61.73
68654;BME280;55636;51.108;13.622;2023-01-28T05:25:50;101388.22;;;-1.23;61.53
68654;BME280;55636;51.108;13.622;2023-01-28T05:26:52;101387.34;;;-1.24;61.76
68654;BME280;55636;51.108;13.622;2023-01-28T05:27:56;101384.78;;;-1.25;61.53
68654;BME280;55636;51.108;13.622;2023-01-28T05:29:01;101393.78;;;-1.25;61.57
68654;BME280;55636;51.108;13.622;2023-01-28T05:30:04;101391.22;;;-1.26;61.71
68654;BME280;55636;51.108;13.622;2023-01-28T05:31:09;101386.81;;;-1.27;61.71
68654;BME280;55636;51.108;13.622;2023-01-28T05:32:12;101395.97;;;-1.28;61.64
68654;BME280;55636;51.108;13.622;2023-01-28T05:33:14;101391.38;;;-1.28;61.84
68654;BME280;55636;51.108;13.622;2023-01-28T05:34:16;101390.53;;;-1.28;61.80
68654;BME280;55636;51.108;13.622;2023-01-28T05:35:19;101390.38;;;-1.27;61.77
68654;BME280;55636;51.108;13.622;2023-01-28T05:36:21;101396.81;;;-1.28;61.79
68654;BME280;55636;51.108;13.622;2023-01-28T05:37:24;101388.84;;;-1.29;61.79
68654;BME280;55636;51.108;13.622;2023-01-28T05:38:29;101396.81;;;-1.28;61.67
68654;BME280;55636;51.108;13.622;2023-01-28T05:39:34;101387.97;;;-1.30;61.66
68654;BME280;55636;51.108;13.622;2023-01-28T05:40:37;101394.25;;;-1.29;61.68
68654;BME280;55636;51.108;13.622;2023-01-28T05:41:39;101401.53;;;-1.30;61.86
68654;BME280;55636;51.108;13.622;2023-01-28T05:42:42;101398.81;;;-1.30;61.80
68654;BME280;55636;51.108;13.622;2023-01-28T05:44:07;101404.22;;;-1.30;61.66
68654;BME280;55636;51.108;13.622;2023-01-28T05:45:35;101407.81;;;-1.29;61.81
68654;BME280;55636;51.108;13.622;2023-01-28T05:46:41;101417.94;;;-1.31;61.45
68654;BME280;55636;51.108;13.622;2023-01-28T05:48:05;101409.13;;;-1.33;61.65
68654;BME280;55636;51.108;13.622;2023-01-28T05:49:22;101409.97;;;-1.33;61.53
68654;BME280;55636;51.108;13.622;2023-01-28T05:50:48;101409.97;;;-1.33;61.62
68654;BME280;55636;51.108;13.622;2023-01-28T05:51:55;101410.97;;;-1.34;61.67
68654;BME280;55636;51.108;13.622;2023-01-28T05:52:58;101409.13;;;-1.33;61.83
68654;BME280;55636;51.108;13.622;2023-01-28T05:54:07;101413.53;;;-1.32;61.86
68654;BME280;55636;51.108;13.622;2023-01-28T05:55:10;101414.56;;;-1.33;61.73
68654;BME280;55636;51.108;13.622;2023-01-28T05:56:12;101410.13;;;-1.34;61.80
68654;BME280;55636;51.108;13.622;2023-01-28T05:57:15;101411.97;;;-1.35;61.90
68654;BME280;55636;51.108;13.622;2023-01-28T05:58:19;101418.28;;;-1.34;61.69
68654;BME280;55636;51.108;13.622;2023-01-28T05:59:21;101421.00;;;-1.34;61.70
68654;BME280;55636;51.108;13.622;2023-01-28T06:00:26;101422.81;;;-1.35;61.80
68654;BME280;55636;51.108;13.622;2023-01-28T06:01:29;101421.00;;;-1.34;61.83
68654;BME280;55636;51.108;13.622;2023-01-28T06:02:33;101417.41;;;-1.35;61.79
68654;BME280;55636;51.108;13.622;2023-01-28T06:03:35;101417.28;;;-1.33;61.87
68654;BME280;55636;51.108;13.622;2023-01-28T06:04:40;101419.13;;;-1.34;61.81
68654;BME280;55636;51.108;13.622;2023-01-28T06:05:44;101418.13;;;-1.33;61.74
68654;BME280;55636;51.108;13.622;2023-01-28T06:06:46;101421.66;;;-1.32;61.81
68654;BME280;55636;51.108;13.622;2023-01-28T06:07:49;101422.53;;;-1.32;61.86
68654;BME280;55636;51.108;13.622;2023-01-28T06:08:54;101422.53;;;-1.32;61.73
68654;BME280;55636;51.108;13.622;2023-01-28T06:10:01;101421.66;;;-1.32;61.64